KBKT/BKT METAR and TAF weather

Enter ICAO airport designator
Station Type Date Time Source
KBKT METAR 2019/08/21 03:15 UTC NOAA

KBKT 210315Z AUTO 00000KT 10SM CLR 25/25 A3008 RMK AO1 T02470247


Station Type Date Time Source
KBKT Decoded METAR 2019/08/21 03:15 UTC NOAA

Station name not available
Aug 20, 2019 - 11:15 PM EDT / 2019.08.21 0315 UTC
Wind: Calm:0
Visibility: 10 mile(s):0
Sky conditions: clear
Temperature: 76.5 F (24.7 C)
Dew Point: 76.5 F (24.7 C)
Relative Humidity: 100%
Pressure (altimeter): 30.08 in. Hg (1018 hPa)
ob: KBKT 210315Z AUTO 00000KT 10SM CLR 25/25 A3008 RMK AO1 T02470247
cycle: 3

Station Type Date Time Source
KBKT TAF UTC NOAA

Error!

Example: see airport list